createdAt,value
2022-07-30T00:01:13.717Z,3.55
2022-07-30T00:03:40.280Z,2.70
2022-07-30T00:06:06.753Z,2.20
2022-07-30T00:08:33.914Z,2.72
2022-07-30T00:11:00.389Z,2.08
2022-07-30T00:13:26.853Z,1.70
2022-07-30T00:15:53.309Z,2.25
2022-07-30T00:18:19.790Z,2.42
2022-07-30T00:20:48.815Z,2.25
2022-07-30T00:23:15.555Z,2.53
2022-07-30T00:25:42.152Z,1.70
2022-07-30T00:28:08.645Z,1.60
2022-07-30T00:30:35.146Z,1.75
2022-07-30T00:33:01.691Z,1.85
2022-07-30T00:35:28.153Z,1.85
2022-07-30T00:37:54.645Z,1.45
2022-07-30T00:40:21.112Z,1.58
2022-07-30T00:42:47.595Z,1.83
2022-07-30T00:45:14.057Z,3.47
2022-07-30T00:47:40.518Z,3.60
2022-07-30T00:50:06.992Z,3.38
2022-07-30T00:52:33.458Z,2.10
2022-07-30T00:54:59.932Z,2.92
2022-07-30T00:57:26.390Z,2.63
2022-07-30T00:59:52.860Z,2.22
2022-07-30T01:02:19.331Z,2.08
2022-07-30T01:04:45.822Z,1.75
2022-07-30T01:07:12.281Z,3.17
2022-07-30T01:09:38.751Z,3.17
2022-07-30T01:12:05.225Z,3.15
2022-07-30T01:14:31.706Z,2.45
2022-07-30T01:16:58.379Z,2.03
2022-07-30T01:19:25.027Z,3.10
2022-07-30T01:21:51.488Z,3.40
2022-07-30T01:24:17.967Z,2.80
2022-07-30T01:26:44.433Z,3.38
2022-07-30T01:29:10.902Z,2.50
2022-07-30T01:31:37.399Z,1.80
2022-07-30T01:34:03.926Z,1.88
2022-07-30T01:36:30.391Z,1.80
2022-07-30T01:38:56.865Z,1.42
2022-07-30T01:41:23.323Z,1.92
2022-07-30T01:43:49.797Z,3.08
2022-07-30T01:46:16.292Z,4.20
2022-07-30T01:48:42.876Z,3.72
2022-07-30T01:51:09.392Z,2.35
2022-07-30T01:53:36.874Z,3.08
2022-07-30T01:56:03.343Z,3.13
2022-07-30T01:58:30.327Z,2.90
2022-07-30T02:00:56.848Z,4.15
2022-07-30T02:03:23.427Z,5.00
2022-07-30T02:05:49.945Z,4.85
2022-07-30T02:08:16.405Z,6.85
2022-07-30T02:10:42.886Z,5.88
2022-07-30T02:13:09.343Z,5.97
2022-07-30T02:15:35.815Z,6.07
2022-07-30T02:18:02.268Z,5.55
2022-07-30T02:20:28.739Z,4.82
2022-07-30T02:22:55.197Z,4.43
2022-07-30T02:25:21.665Z,4.63
2022-07-30T02:27:48.127Z,3.97
2022-07-30T02:30:14.600Z,4.43
2022-07-30T02:32:41.052Z,4.70
2022-07-30T02:35:07.516Z,4.22
2022-07-30T02:37:42.825Z,4.30
2022-07-30T02:40:10.781Z,4.47
2022-07-30T02:42:37.249Z,4.78
2022-07-30T02:45:03.719Z,4.25
2022-07-30T02:47:30.189Z,3.70
2022-07-30T02:49:56.651Z,4.63
2022-07-30T02:52:23.125Z,3.45
2022-07-30T02:54:49.589Z,3.33
2022-07-30T02:57:16.065Z,3.45
2022-07-30T02:59:42.526Z,4.32
2022-07-30T03:02:09.019Z,4.20
2022-07-30T03:04:35.519Z,4.57
2022-07-30T03:07:08.111Z,4.97
2022-07-30T03:09:52.519Z,4.88
2022-07-30T03:12:19.176Z,3.70
2022-07-30T03:14:45.633Z,4.35
2022-07-30T03:17:12.115Z,5.13
2022-07-30T03:19:38.575Z,6.13
2022-07-30T03:22:05.176Z,5.35
2022-07-30T03:24:31.640Z,5.75
2022-07-30T03:26:58.478Z,4.95
2022-07-30T03:29:25.237Z,5.82
2022-07-30T03:31:51.765Z,4.90
2022-07-30T03:34:18.294Z,4.57
2022-07-30T03:36:44.761Z,4.57
2022-07-30T03:39:11.223Z,3.65
2022-07-30T03:41:37.701Z,3.75
2022-07-30T03:44:05.055Z,5.80
2022-07-30T03:46:31.579Z,4.15
2022-07-30T03:48:58.134Z,3.95
2022-07-30T03:51:24.643Z,3.83
2022-07-30T03:53:51.116Z,5.47
2022-07-30T03:56:17.592Z,5.35
2022-07-30T03:58:44.056Z,4.28
2022-07-30T04:01:10.529Z,3.88
2022-07-30T04:03:37.026Z,4.47
2022-07-30T04:06:03.545Z,4.65
2022-07-30T04:08:30.030Z,4.25
2022-07-30T04:10:56.492Z,4.85
2022-07-30T04:13:23.012Z,6.10
2022-07-30T04:16:38.794Z,4.45
2022-07-30T04:18:35.932Z,4.10
2022-07-30T04:21:02.381Z,2.95
2022-07-30T04:23:28.846Z,4.93
2022-07-30T04:25:55.311Z,4.50
2022-07-30T04:28:21.788Z,3.38
2022-07-30T04:30:48.305Z,4.05
2022-07-30T04:33:14.805Z,3.58
2022-07-30T04:35:51.557Z,3.60
2022-07-30T04:38:18.667Z,5.72
2022-07-30T04:40:45.130Z,3.67
2022-07-30T04:43:11.603Z,4.05
2022-07-30T04:45:38.069Z,3.55
2022-07-30T04:48:04.575Z,3.40
2022-07-30T04:50:31.028Z,2.85
2022-07-30T04:52:57.504Z,3.13
2022-07-30T04:55:23.970Z,3.47
2022-07-30T04:57:50.431Z,4.43
2022-07-30T05:00:16.909Z,4.15
2022-07-30T05:02:43.417Z,3.47
2022-07-30T05:05:09.952Z,4.22
2022-07-30T05:07:36.454Z,4.75
2022-07-30T05:10:02.924Z,4.78
2022-07-30T05:12:29.391Z,4.05
2022-07-30T05:14:55.870Z,3.88
2022-07-30T05:17:22.323Z,3.72
2022-07-30T05:19:48.799Z,4.05
2022-07-30T05:22:15.335Z,4.60
2022-07-30T05:24:41.811Z,5.47
2022-07-30T05:27:08.264Z,3.67
2022-07-30T05:29:34.738Z,3.38
2022-07-30T05:32:02.759Z,3.42
2022-07-30T05:34:30.163Z,3.70
2022-07-30T05:36:56.640Z,3.53
2022-07-30T05:39:23.115Z,3.85
2022-07-30T05:41:49.580Z,4.00
2022-07-30T05:44:18.618Z,3.83
2022-07-30T05:46:47.296Z,3.80
2022-07-30T05:49:13.814Z,3.88
2022-07-30T05:51:40.329Z,3.88
2022-07-30T05:54:07.693Z,2.97
2022-07-30T05:56:34.180Z,3.22
2022-07-30T05:59:00.634Z,4.68
2022-07-30T06:01:27.267Z,4.30
2022-07-30T06:03:53.793Z,3.45
2022-07-30T06:06:23.038Z,2.95
2022-07-30T06:08:49.847Z,3.60
2022-07-30T06:11:16.322Z,3.72
2022-07-30T06:13:42.781Z,3.30
2022-07-30T06:16:09.288Z,4.40
2022-07-30T06:18:35.813Z,3.60
2022-07-30T06:21:02.279Z,2.50
2022-07-30T06:23:28.746Z,2.90
2022-07-30T06:25:55.240Z,2.80
2022-07-30T06:28:36.875Z,4.30
2022-07-30T06:31:04.452Z,3.78
2022-07-30T06:33:30.962Z,3.88
2022-07-30T06:35:57.420Z,3.00
2022-07-30T06:38:23.901Z,3.75
2022-07-30T06:40:50.369Z,3.05
2022-07-30T06:43:16.842Z,3.20
2022-07-30T06:45:44.001Z,3.30
2022-07-30T06:48:10.711Z,3.28
2022-07-30T06:50:37.201Z,3.67
2022-07-30T06:53:03.672Z,2.75
2022-07-30T06:55:30.129Z,3.05
2022-07-30T06:57:56.592Z,3.30
2022-07-30T07:00:23.051Z,2.60
2022-07-30T07:02:49.524Z,2.63
2022-07-30T07:05:15.983Z,3.00
2022-07-30T07:07:49.062Z,4.03
2022-07-30T07:10:24.517Z,4.20
2022-07-30T07:12:50.993Z,3.72
2022-07-30T07:15:17.459Z,4.30
2022-07-30T07:17:43.927Z,3.72
2022-07-30T07:20:10.376Z,3.70
2022-07-30T07:22:36.841Z,3.47
2022-07-30T07:25:03.297Z,4.80
2022-07-30T07:27:29.756Z,3.35
2022-07-30T07:30:05.525Z,3.80
2022-07-30T07:32:32.733Z,4.57
2022-07-30T07:34:59.206Z,4.32
2022-07-30T07:37:25.667Z,3.28
2022-07-30T07:39:52.142Z,3.65
2022-07-30T07:42:18.595Z,3.03
2022-07-30T07:44:45.069Z,3.17
2022-07-30T07:47:11.532Z,3.53
2022-07-30T07:49:37.996Z,3.90
2022-07-30T07:52:04.452Z,3.50
2022-07-30T07:54:30.920Z,2.20
2022-07-30T07:56:57.485Z,2.83
2022-07-30T07:59:36.079Z,2.40
2022-07-30T08:02:08.157Z,2.72
2022-07-30T08:04:34.906Z,2.40
2022-07-30T08:07:01.866Z,2.05
2022-07-30T08:09:44.070Z,3.03
2022-07-30T08:12:11.275Z,2.28
2022-07-30T08:14:37.744Z,2.25
2022-07-30T08:17:04.518Z,2.60
2022-07-30T08:19:31.364Z,2.45
2022-07-30T08:21:57.830Z,2.20
2022-07-30T08:24:24.293Z,2.53
2022-07-30T08:26:50.772Z,2.45
2022-07-30T08:29:17.455Z,2.80
2022-07-30T08:31:43.982Z,2.83
2022-07-30T08:34:10.447Z,2.60
2022-07-30T08:36:36.926Z,1.60
2022-07-30T08:39:03.409Z,1.65
2022-07-30T08:41:29.884Z,2.38
2022-07-30T08:43:56.350Z,1.80
2022-07-30T08:46:22.826Z,1.75
2022-07-30T08:51:16.682Z,1.52
2022-07-30T08:53:43.136Z,2.05
2022-07-30T08:56:09.606Z,2.03
2022-07-30T08:58:36.076Z,1.60
2022-07-30T09:01:02.543Z,1.67
2022-07-30T09:03:29.009Z,1.15
2022-07-30T09:05:55.493Z,1.90
2022-07-30T09:08:21.961Z,1.60
2022-07-30T09:10:52.697Z,1.55
2022-07-30T09:15:46.474Z,1.40
2022-07-30T09:18:12.938Z,1.30
2022-07-30T09:20:39.405Z,1.27
2022-07-30T09:23:05.868Z,1.52
2022-07-30T09:25:32.330Z,1.10
2022-07-30T09:27:58.808Z,1.92
2022-07-30T09:30:28.239Z,1.38
2022-07-30T09:32:58.489Z,0.93
2022-07-30T09:35:24.950Z,1.08
2022-07-30T09:37:51.436Z,1.20
2022-07-30T09:40:17.886Z,1.00
2022-07-30T09:42:44.364Z,1.05
2022-07-30T09:45:10.822Z,0.65
2022-07-30T09:47:37.285Z,1.00
2022-07-30T09:50:07.525Z,0.80
2022-07-30T09:52:34.177Z,0.97
2022-07-30T09:55:00.643Z,0.93
2022-07-30T09:57:27.958Z,1.13
2022-07-30T09:59:54.893Z,1.33
2022-07-30T10:02:21.356Z,2.10
2022-07-30T10:04:48.088Z,1.02
2022-07-30T10:07:14.555Z,1.00
2022-07-30T10:09:52.202Z,1.25
2022-07-30T10:12:19.132Z,0.90
2022-07-30T10:14:50.573Z,0.60
2022-07-30T10:17:17.444Z,0.90
2022-07-30T10:19:44.376Z,0.75
2022-07-30T10:22:13.729Z,1.20
2022-07-30T10:24:43.576Z,0.80
2022-07-30T10:27:10.047Z,1.35
2022-07-30T10:29:38.471Z,1.27
2022-07-30T10:32:09.493Z,1.15
2022-07-30T10:34:36.042Z,1.35
2022-07-30T10:37:04.397Z,1.20
2022-07-30T10:39:34.476Z,1.10
2022-07-30T10:42:01.283Z,1.20
2022-07-30T10:44:27.759Z,0.90
2022-07-30T10:46:54.571Z,1.30
2022-07-30T10:49:23.351Z,1.30
2022-07-30T10:51:50.787Z,1.10
2022-07-30T10:54:18.923Z,1.20
2022-07-30T10:56:45.410Z,1.10
2022-07-30T10:59:11.872Z,1.50
2022-07-30T11:01:41.497Z,1.50
2022-07-30T11:04:11.978Z,1.25
2022-07-30T11:06:38.455Z,0.95
2022-07-30T11:09:04.916Z,1.02
2022-07-30T11:12:05.844Z,1.00
2022-07-30T11:14:17.831Z,1.20
2022-07-30T11:16:47.047Z,1.13
2022-07-30T11:19:56.707Z,1.55
2022-07-30T11:22:00.230Z,0.95
2022-07-30T11:24:26.849Z,1.52
2022-07-30T11:26:53.328Z,0.88
2022-07-30T11:29:20.005Z,1.08
2022-07-30T11:32:00.948Z,1.10
2022-07-30T11:34:30.694Z,1.35
2022-07-30T11:36:57.573Z,1.00
2022-07-30T11:39:31.865Z,0.93
2022-07-30T11:44:31.560Z,1.00
2022-07-30T11:46:58.018Z,0.95
2022-07-30T11:49:24.582Z,1.10
2022-07-30T11:51:51.105Z,1.50
2022-07-30T11:54:17.598Z,1.05
2022-07-30T11:56:44.073Z,1.10
2022-07-30T11:59:10.546Z,1.10
2022-07-30T12:01:37.000Z,1.15
2022-07-30T12:04:03.473Z,1.20
2022-07-30T12:06:29.934Z,1.20
2022-07-30T12:08:58.670Z,1.30
2022-07-30T12:11:25.398Z,1.05
2022-07-30T12:13:51.877Z,1.00
2022-07-30T12:16:18.346Z,1.00
2022-07-30T12:18:44.828Z,1.00
2022-07-30T12:21:11.287Z,1.20
2022-07-30T12:23:37.756Z,1.30
2022-07-30T12:26:04.211Z,0.90
2022-07-30T12:28:30.684Z,1.05
2022-07-30T12:30:57.141Z,1.02
2022-07-30T12:33:23.621Z,0.98
2022-07-30T12:35:50.080Z,1.30
2022-07-30T12:38:16.543Z,1.05
2022-07-30T12:40:43.029Z,1.20
2022-07-30T12:43:13.572Z,1.02
2022-07-30T12:45:52.219Z,1.00
2022-07-30T12:48:20.917Z,0.70
2022-07-30T12:50:48.647Z,1.35
2022-07-30T12:53:15.112Z,0.90
2022-07-30T12:55:41.590Z,1.10
2022-07-30T12:58:09.119Z,1.20
2022-07-30T13:00:35.760Z,1.23
2022-07-30T13:03:02.234Z,1.00
2022-07-30T13:05:28.708Z,1.15
2022-07-30T13:07:55.165Z,1.10
2022-07-30T13:10:21.673Z,1.00
2022-07-30T13:12:48.129Z,0.90
2022-07-30T13:15:14.608Z,0.90
2022-07-30T13:17:41.067Z,1.13
2022-07-30T13:20:07.595Z,1.10
2022-07-30T13:22:34.126Z,0.80
2022-07-30T13:25:00.599Z,0.82
2022-07-30T13:27:27.100Z,1.23
2022-07-30T13:29:53.566Z,1.27
2022-07-30T13:32:20.044Z,1.33
2022-07-30T13:34:46.517Z,1.00
2022-07-30T13:37:13.001Z,1.02
2022-07-30T13:39:39.457Z,1.20
2022-07-30T13:42:05.935Z,0.98
2022-07-30T13:44:32.389Z,1.00
2022-07-30T13:47:01.828Z,0.85
2022-07-30T13:49:28.748Z,1.00
2022-07-30T13:51:56.744Z,1.00
2022-07-30T13:54:23.207Z,1.10
2022-07-30T13:56:49.690Z,0.95
2022-07-30T13:59:16.157Z,1.02
2022-07-30T14:01:42.732Z,0.98
2022-07-30T14:04:09.296Z,1.02
2022-07-30T14:06:35.774Z,0.90
2022-07-30T14:09:02.229Z,1.30
2022-07-30T14:11:28.703Z,0.90
2022-07-30T14:13:55.170Z,0.93
2022-07-30T14:16:44.248Z,1.27
2022-07-30T14:19:08.114Z,1.30
2022-07-30T14:21:49.740Z,0.85
2022-07-30T14:24:16.207Z,1.20
2022-07-30T14:26:42.699Z,1.38
2022-07-30T14:29:09.156Z,1.10
2022-07-30T14:31:35.610Z,1.05
2022-07-30T14:34:02.099Z,1.10
2022-07-30T14:36:28.564Z,1.13
2022-07-30T14:38:56.707Z,0.93
2022-07-30T14:41:23.283Z,1.10
2022-07-30T14:43:49.753Z,0.98
2022-07-30T14:46:16.221Z,1.02
2022-07-30T14:48:42.724Z,0.90
2022-07-30T14:51:17.951Z,1.30
2022-07-30T14:53:48.332Z,1.20
2022-07-30T14:56:14.794Z,1.35
2022-07-30T14:58:44.193Z,1.05
2022-07-30T15:01:15.700Z,1.13
2022-07-30T15:03:43.253Z,1.30
2022-07-30T15:06:09.722Z,1.05
2022-07-30T15:08:36.193Z,1.10
2022-07-30T15:11:02.716Z,1.25
2022-07-30T15:13:32.561Z,1.25
2022-07-30T15:15:59.023Z,1.33
2022-07-30T15:18:25.597Z,1.02
2022-07-30T15:20:52.077Z,1.10
2022-07-30T15:23:18.604Z,1.30
2022-07-30T15:25:45.065Z,1.10
2022-07-30T15:28:11.547Z,1.00
2022-07-30T15:30:38.028Z,1.50
2022-07-30T15:33:04.575Z,1.00
2022-07-30T15:35:31.041Z,1.10
2022-07-30T15:37:58.530Z,1.27
2022-07-30T15:40:25.500Z,1.17
2022-07-30T15:42:52.050Z,0.90
2022-07-30T15:45:18.904Z,1.52
2022-07-30T15:47:45.474Z,1.20
2022-07-30T15:50:11.932Z,1.27
2022-07-30T15:52:38.528Z,1.20
2022-07-30T15:55:05.016Z,1.00
2022-07-30T15:57:31.480Z,1.00
2022-07-30T15:59:57.990Z,1.38
2022-07-30T16:02:24.514Z,1.20
2022-07-30T16:04:51.063Z,0.90
2022-07-30T16:07:19.216Z,1.08
2022-07-30T16:09:45.690Z,1.17
2022-07-30T16:12:12.151Z,1.10
2022-07-30T16:14:38.617Z,1.15
2022-07-30T16:17:05.083Z,1.48
2022-07-30T16:19:31.561Z,1.00
2022-07-30T16:21:58.046Z,1.00
2022-07-30T16:24:24.545Z,0.90
2022-07-30T16:26:51.006Z,1.17
2022-07-30T16:29:17.482Z,1.20
2022-07-30T16:31:43.958Z,1.20
2022-07-30T16:34:10.439Z,1.10
2022-07-30T16:36:36.917Z,1.00
2022-07-30T16:39:03.398Z,0.80
2022-07-30T16:41:29.861Z,1.10
2022-07-30T16:43:56.329Z,0.90
2022-07-30T16:46:22.789Z,1.05
2022-07-30T16:48:50.550Z,0.73
2022-07-30T16:51:17.225Z,0.85
2022-07-30T16:53:43.710Z,0.70
2022-07-30T16:56:10.163Z,0.73
2022-07-30T16:58:36.650Z,0.70
2022-07-30T17:01:03.163Z,0.95
2022-07-30T17:03:29.744Z,0.90
2022-07-30T17:05:56.213Z,1.10
2022-07-30T17:08:24.796Z,1.15
2022-07-30T17:10:51.845Z,0.77
2022-07-30T17:13:18.319Z,0.98
2022-07-30T17:15:46.780Z,0.80
2022-07-30T17:18:13.528Z,1.17
2022-07-30T17:20:39.989Z,1.08
2022-07-30T17:23:06.462Z,0.90
2022-07-30T17:25:32.923Z,1.00
2022-07-30T17:27:59.387Z,1.10
2022-07-30T17:30:25.863Z,1.10
2022-07-30T17:32:52.324Z,0.90
2022-07-30T17:35:18.787Z,1.00
2022-07-30T17:37:45.236Z,1.17
2022-07-30T17:40:30.482Z,1.00
2022-07-30T17:42:57.746Z,0.77
2022-07-30T17:45:24.216Z,1.30
2022-07-30T17:47:50.664Z,0.90
2022-07-30T17:50:17.153Z,1.15
2022-07-30T17:52:43.604Z,0.80
2022-07-30T17:55:10.081Z,1.00
2022-07-30T17:57:36.549Z,0.90
2022-07-30T18:00:03.030Z,0.70
2022-07-30T18:02:29.496Z,0.77
2022-07-30T18:04:56.619Z,0.88
2022-07-30T18:07:23.376Z,0.88
2022-07-30T18:09:49.893Z,0.80
2022-07-30T18:12:16.358Z,0.75
2022-07-30T18:14:42.841Z,0.90
2022-07-30T18:17:13.941Z,0.90
2022-07-30T18:19:41.069Z,1.05
2022-07-30T18:22:07.579Z,0.90
2022-07-30T18:24:34.057Z,0.70
2022-07-30T18:27:07.069Z,0.60
2022-07-30T18:29:33.537Z,0.90
2022-07-30T18:32:00.450Z,0.73
2022-07-30T18:34:27.178Z,0.77
2022-07-30T18:36:53.669Z,0.55
2022-07-30T18:39:20.140Z,0.80
2022-07-30T18:41:46.621Z,0.65
2022-07-30T18:44:13.101Z,0.85
2022-07-30T18:46:39.557Z,0.90
2022-07-30T18:49:21.233Z,0.77
2022-07-30T18:51:52.490Z,1.52
2022-07-30T18:54:19.351Z,0.85
2022-07-30T18:56:45.849Z,0.93
2022-07-30T18:59:12.322Z,1.00
2022-07-30T19:01:38.856Z,0.85
2022-07-30T19:04:05.503Z,0.90
2022-07-30T19:06:31.984Z,0.90
2022-07-30T19:08:58.445Z,1.00
2022-07-30T19:11:24.917Z,0.98
2022-07-30T19:13:51.389Z,1.00
2022-07-30T19:16:17.860Z,1.10
2022-07-30T19:18:44.331Z,0.85
2022-07-30T19:21:14.011Z,0.90
2022-07-30T19:23:40.773Z,1.00
2022-07-30T19:26:07.238Z,0.60
2022-07-30T19:28:33.700Z,0.70
2022-07-30T19:31:00.174Z,0.68
2022-07-30T19:33:26.841Z,0.70
2022-07-30T19:35:53.307Z,0.60
2022-07-30T19:38:21.949Z,0.40
2022-07-30T19:40:50.312Z,0.45
2022-07-30T19:43:16.792Z,0.70
2022-07-30T19:45:47.723Z,0.85
2022-07-30T19:48:14.644Z,0.43
2022-07-30T19:50:41.127Z,0.40
2022-07-30T19:53:07.605Z,0.75
2022-07-30T19:55:35.741Z,0.55
2022-07-30T19:58:02.515Z,0.40
2022-07-30T20:00:30.000Z,0.45
2022-07-30T20:02:56.950Z,0.50
2022-07-30T20:05:24.911Z,0.50
2022-07-30T20:07:51.559Z,0.52
2022-07-30T20:10:18.532Z,0.40
2022-07-30T20:12:49.110Z,0.70
2022-07-30T20:15:16.183Z,0.50
2022-07-30T20:17:42.644Z,0.30
2022-07-30T20:20:09.468Z,0.40
2022-07-30T20:22:35.949Z,0.60
2022-07-30T20:25:02.408Z,0.50
2022-07-30T20:30:16.085Z,0.35
2022-07-30T20:32:51.974Z,0.60
2022-07-30T20:35:19.935Z,0.60
2022-07-30T20:37:54.974Z,0.60
2022-07-30T20:40:22.961Z,0.68
2022-07-30T20:42:49.529Z,0.90
2022-07-30T20:45:16.034Z,0.50
2022-07-30T20:47:42.500Z,0.55
2022-07-30T20:50:14.431Z,0.60
2022-07-30T20:52:41.081Z,0.50
2022-07-30T20:55:14.535Z,0.85
2022-07-30T20:57:56.958Z,0.70
2022-07-30T21:00:27.760Z,0.70
2022-07-30T21:02:54.251Z,1.00
2022-07-30T21:05:20.709Z,0.88
2022-07-30T21:07:47.185Z,0.65
2022-07-30T21:10:14.635Z,0.50
2022-07-30T21:12:41.221Z,1.55
2022-07-30T21:15:15.760Z,0.77
2022-07-30T21:17:50.707Z,1.05
2022-07-30T21:20:17.312Z,1.00
2022-07-30T21:22:54.443Z,0.70
2022-07-30T21:25:20.969Z,0.60
2022-07-30T21:27:50.079Z,0.50
2022-07-30T21:30:16.829Z,0.80
2022-07-30T21:32:43.575Z,0.70
2022-07-30T21:35:11.768Z,0.98
2022-07-30T21:37:38.389Z,0.88
2022-07-30T21:40:09.508Z,0.70
2022-07-30T21:42:36.207Z,0.60
2022-07-30T21:45:14.865Z,0.80
2022-07-30T21:47:41.440Z,0.70
2022-07-30T21:50:14.298Z,0.85
2022-07-30T21:52:42.787Z,0.80
2022-07-30T21:55:09.253Z,0.70
2022-07-30T21:57:39.874Z,0.50
2022-07-30T22:00:06.337Z,0.60
2022-07-30T22:02:35.599Z,0.80
2022-07-30T22:05:02.831Z,0.88
2022-07-30T22:07:29.302Z,0.68
2022-07-30T22:09:55.769Z,0.80
2022-07-30T22:12:22.243Z,0.75
2022-07-30T22:14:55.282Z,0.73
2022-07-30T22:17:23.747Z,0.60
2022-07-30T22:20:03.170Z,0.45
2022-07-30T22:22:35.564Z,0.60
2022-07-30T22:25:02.588Z,0.68
2022-07-30T22:27:39.862Z,0.73
2022-07-30T22:30:10.476Z,1.00
2022-07-30T22:32:40.145Z,0.90
2022-07-30T22:35:06.625Z,1.17
2022-07-30T22:37:34.191Z,1.20
2022-07-30T22:40:00.842Z,1.48
2022-07-30T22:42:28.206Z,1.38
2022-07-30T22:44:55.448Z,1.05
2022-07-30T22:47:53.932Z,1.23
2022-07-30T22:50:08.642Z,0.90
2022-07-30T22:52:35.290Z,0.88
2022-07-30T22:55:09.031Z,1.00
2022-07-30T22:57:38.023Z,1.13
2022-07-30T23:00:04.789Z,1.45
2022-07-30T23:02:31.944Z,1.00
2022-07-30T23:04:58.423Z,1.13
2022-07-30T23:07:35.976Z,1.08
2022-07-30T23:10:17.035Z,1.23
2022-07-30T23:12:18.988Z,0.45
2022-07-30T23:12:44.364Z,1.20
2022-07-30T23:15:10.946Z,1.13
2022-07-30T23:17:37.408Z,0.93
2022-07-30T23:20:03.881Z,0.90
2022-07-30T23:22:30.333Z,1.08
2022-07-30T23:24:56.802Z,0.90
2022-07-30T23:27:23.267Z,0.85
2022-07-30T23:29:49.744Z,1.35
2022-07-30T23:32:16.216Z,0.95
2022-07-30T23:34:42.687Z,0.75
2022-07-30T23:37:13.002Z,0.90
2022-07-30T23:39:41.207Z,0.85
2022-07-30T23:42:07.688Z,0.70
2022-07-30T23:44:37.074Z,1.00
2022-07-30T23:47:04.083Z,0.50
2022-07-30T23:49:30.892Z,0.60
2022-07-30T23:51:57.364Z,0.70
2022-07-30T23:54:23.830Z,0.90
2022-07-30T23:56:50.300Z,0.77
2022-07-30T23:59:16.774Z,0.82
